sensor_id;sensor_type;location;lat;lon;timestamp;pressure;altitude;pressure_sealevel;temperature;humidity
48774;BME280;34576;0.000;0.000;2023-08-06T00:06:18;96034.56;;;19.91;56.38
48774;BME280;34576;0.000;0.000;2023-08-06T00:13:18;96034.25;;;19.92;56.43
48774;BME280;34576;0.000;0.000;2023-08-06T00:20:19;95992.91;;;19.81;58.47
48774;BME280;34576;0.000;0.000;2023-08-06T00:27:19;95998.91;;;19.87;58.21
48774;BME280;34576;0.000;0.000;2023-08-06T00:34:20;96009.13;;;19.93;57.36
48774;BME280;34576;0.000;0.000;2023-08-06T00:41:20;95997.50;;;19.89;57.78
48774;BME280;34576;0.000;0.000;2023-08-06T00:48:21;95985.72;;;19.90;57.38
48774;BME280;34576;0.000;0.000;2023-08-06T00:55:21;95974.13;;;19.95;56.99
48774;BME280;34576;0.000;0.000;2023-08-06T01:02:22;95959.50;;;19.92;57.94
48774;BME280;34576;0.000;0.000;2023-08-06T01:16:25;95942.72;;;19.92;56.92
48774;BME280;34576;0.000;0.000;2023-08-06T01:23:30;95955.59;;;19.90;56.79
48774;BME280;34576;0.000;0.000;2023-08-06T01:30:31;95938.16;;;19.92;56.30
48774;BME280;34576;0.000;0.000;2023-08-06T01:37:36;95948.97;;;19.87;56.46
48774;BME280;34576;0.000;0.000;2023-08-06T01:44:37;95938.31;;;19.87;56.06
48774;BME280;34576;0.000;0.000;2023-08-06T01:51:38;95934.84;;;19.87;56.04
48774;BME280;34576;0.000;0.000;2023-08-06T01:58:39;95938.31;;;19.87;56.07
48774;BME280;34576;0.000;0.000;2023-08-06T02:05:40;95948.09;;;19.78;55.81
48774;BME280;34576;0.000;0.000;2023-08-06T02:12:41;95932.97;;;19.87;56.02
48774;BME280;34576;0.000;0.000;2023-08-06T02:19:42;95909.88;;;19.82;56.17
48774;BME280;34576;0.000;0.000;2023-08-06T02:26:43;95917.19;;;19.77;56.87
48774;BME280;34576;0.000;0.000;2023-08-06T02:33:43;95943.28;;;19.80;57.45
48774;BME280;34576;0.000;0.000;2023-08-06T02:40:45;95944.66;;;19.77;57.97
48774;BME280;34576;0.000;0.000;2023-08-06T02:47:48;95942.69;;;19.69;58.91
48774;BME280;34576;0.000;0.000;2023-08-06T02:54:48;95960.41;;;19.65;58.67
48774;BME280;34576;0.000;0.000;2023-08-06T03:01:49;95976.72;;;19.63;58.54
48774;BME280;34576;0.000;0.000;2023-08-06T03:08:57;95976.59;;;19.69;58.02
48774;BME280;34576;0.000;0.000;2023-08-06T03:15:58;95972.97;;;19.64;57.66
48774;BME280;34576;0.000;0.000;2023-08-06T03:23:00;95971.69;;;19.62;57.63
48774;BME280;34576;0.000;0.000;2023-08-06T03:30:09;95952.53;;;19.60;58.12
48774;BME280;34576;0.000;0.000;2023-08-06T03:37:10;95953.88;;;19.71;57.45
48774;BME280;34576;0.000;0.000;2023-08-06T03:44:11;95937.97;;;19.66;58.09
48774;BME280;34576;0.000;0.000;2023-08-06T03:51:11;95944.94;;;19.76;57.57
48774;BME280;34576;0.000;0.000;2023-08-06T03:58:13;95944.59;;;19.69;57.86
48774;BME280;34576;0.000;0.000;2023-08-06T04:05:13;95950.22;;;19.67;57.46
48774;BME280;34576;0.000;0.000;2023-08-06T04:12:14;95950.75;;;19.55;58.38
48774;BME280;34576;0.000;0.000;2023-08-06T04:19:14;95957.13;;;19.45;57.63
48774;BME280;34576;0.000;0.000;2023-08-06T04:26:15;95969.94;;;19.57;56.65
48774;BME280;34576;0.000;0.000;2023-08-06T04:33:15;95960.53;;;19.60;57.16
48774;BME280;34576;0.000;0.000;2023-08-06T04:40:16;95966.09;;;19.49;57.29
48774;BME280;34576;0.000;0.000;2023-08-06T04:47:17;95967.06;;;19.54;56.78
48774;BME280;34576;0.000;0.000;2023-08-06T04:54:18;95953.56;;;19.50;56.15
48774;BME280;34576;0.000;0.000;2023-08-06T05:01:18;95954.63;;;19.49;56.81
48774;BME280;34576;0.000;0.000;2023-08-06T05:08:19;95976.97;;;19.53;56.65
48774;BME280;34576;0.000;0.000;2023-08-06T05:15:19;95959.59;;;19.42;56.94
48774;BME280;34576;0.000;0.000;2023-08-06T05:22:20;95967.19;;;19.48;56.77
48774;BME280;34576;0.000;0.000;2023-08-06T05:29:20;95973.00;;;19.51;56.42
48774;BME280;34576;0.000;0.000;2023-08-06T05:36:20;95982.84;;;19.41;56.42
48774;BME280;34576;0.000;0.000;2023-08-06T05:43:21;95983.34;;;19.29;58.05
48774;BME280;34576;0.000;0.000;2023-08-06T05:50:21;95999.13;;;19.40;57.35
48774;BME280;34576;0.000;0.000;2023-08-06T05:57:22;95992.53;;;19.37;56.94
48774;BME280;34576;0.000;0.000;2023-08-06T06:04:22;95997.34;;;19.35;57.03
48774;BME280;34576;0.000;0.000;2023-08-06T06:11:22;96001.84;;;19.12;57.79
48774;BME280;34576;0.000;0.000;2023-08-06T06:18:23;96010.88;;;19.39;57.20
48774;BME280;34576;0.000;0.000;2023-08-06T06:25:23;96025.06;;;19.48;56.83
48774;BME280;34576;0.000;0.000;2023-08-06T06:32:23;96029.28;;;19.26;57.31
48774;BME280;34576;0.000;0.000;2023-08-06T06:39:24;96031.34;;;19.29;57.08
48774;BME280;34576;0.000;0.000;2023-08-06T06:46:24;96047.06;;;19.17;56.71
48774;BME280;34576;0.000;0.000;2023-08-06T06:53:24;96049.84;;;19.12;56.59
48774;BME280;34576;0.000;0.000;2023-08-06T07:00:28;96053.78;;;19.01;57.16
48774;BME280;34576;0.000;0.000;2023-08-06T07:07:28;96059.50;;;19.08;57.08
48774;BME280;34576;0.000;0.000;2023-08-06T07:14:28;96063.84;;;19.04;57.54
48774;BME280;34576;0.000;0.000;2023-08-06T07:21:28;96059.81;;;19.06;56.58
48774;BME280;34576;0.000;0.000;2023-08-06T07:28:29;96072.13;;;18.88;57.65
48774;BME280;34576;0.000;0.000;2023-08-06T07:35:29;96094.94;;;19.22;56.34
48774;BME280;34576;0.000;0.000;2023-08-06T07:42:29;96080.25;;;19.11;56.54
48774;BME280;34576;0.000;0.000;2023-08-06T07:49:30;96089.50;;;19.00;57.22
48774;BME280;34576;0.000;0.000;2023-08-06T07:56:30;96095.94;;;19.12;57.06
48774;BME280;34576;0.000;0.000;2023-08-06T08:03:30;96103.75;;;19.09;56.86
48774;BME280;34576;0.000;0.000;2023-08-06T08:10:31;96109.00;;;19.14;57.17
48774;BME280;34576;0.000;0.000;2023-08-06T08:17:31;96100.78;;;19.10;56.72
48774;BME280;34576;0.000;0.000;2023-08-06T08:24:32;96110.66;;;19.10;56.98
48774;BME280;34576;0.000;0.000;2023-08-06T08:31:32;96116.56;;;19.07;57.00
48774;BME280;34576;0.000;0.000;2023-08-06T08:38:39;96114.78;;;19.02;57.21
48774;BME280;34576;0.000;0.000;2023-08-06T08:45:39;96126.25;;;19.03;56.92
48774;BME280;34576;0.000;0.000;2023-08-06T08:52:39;96138.19;;;18.91;57.53
48774;BME280;34576;0.000;0.000;2023-08-06T08:59:43;96121.50;;;19.00;57.15
48774;BME280;34576;0.000;0.000;2023-08-06T09:06:43;96141.56;;;18.97;57.50
48774;BME280;34576;0.000;0.000;2023-08-06T09:13:46;96140.84;;;19.05;57.19
48774;BME280;34576;0.000;0.000;2023-08-06T09:20:48;96157.16;;;19.04;57.06
48774;BME280;34576;0.000;0.000;2023-08-06T09:27:49;96164.16;;;19.00;57.00
48774;BME280;34576;0.000;0.000;2023-08-06T09:34:54;96172.28;;;19.08;56.81
48774;BME280;34576;0.000;0.000;2023-08-06T09:41:55;96177.38;;;19.05;56.97
48774;BME280;34576;0.000;0.000;2023-08-06T09:48:56;96181.44;;;19.02;56.96
48774;BME280;34576;0.000;0.000;2023-08-06T09:55:56;96190.78;;;19.00;56.84
48774;BME280;34576;0.000;0.000;2023-08-06T10:02:59;96195.75;;;19.06;56.72
48774;BME280;34576;0.000;0.000;2023-08-06T10:10:00;96209.38;;;19.05;56.88
48774;BME280;34576;0.000;0.000;2023-08-06T10:17:00;96197.06;;;19.09;56.58
48774;BME280;34576;0.000;0.000;2023-08-06T10:24:01;96202.69;;;19.07;56.56
48774;BME280;34576;0.000;0.000;2023-08-06T10:31:03;96205.41;;;19.02;56.71
48774;BME280;34576;0.000;0.000;2023-08-06T10:38:08;96216.31;;;19.06;56.22
48774;BME280;34576;0.000;0.000;2023-08-06T10:45:13;96226.75;;;19.02;56.33
48774;BME280;34576;0.000;0.000;2023-08-06T10:52:14;96212.41;;;18.98;56.81
48774;BME280;34576;0.000;0.000;2023-08-06T10:59:14;96208.38;;;19.01;56.29
48774;BME280;34576;0.000;0.000;2023-08-06T11:06:18;96232.25;;;18.92;56.47
48774;BME280;34576;0.000;0.000;2023-08-06T11:13:22;96229.22;;;18.99;56.95
48774;BME280;34576;0.000;0.000;2023-08-06T11:20:23;96248.94;;;18.97;56.77
48774;BME280;34576;0.000;0.000;2023-08-06T11:27:25;96254.94;;;18.89;57.80
48774;BME280;34576;0.000;0.000;2023-08-06T11:34:27;96264.31;;;18.87;58.18
48774;BME280;34576;0.000;0.000;2023-08-06T11:41:28;96282.72;;;18.45;60.17
48774;BME280;34576;0.000;0.000;2023-08-06T11:48:28;96271.06;;;18.79;59.46
48774;BME280;34576;0.000;0.000;2023-08-06T11:55:28;96267.59;;;18.97;58.55
48774;BME280;34576;0.000;0.000;2023-08-06T12:02:31;96273.44;;;19.00;58.16
48774;BME280;34576;0.000;0.000;2023-08-06T12:09:34;96274.72;;;19.02;58.44
48774;BME280;34576;0.000;0.000;2023-08-06T12:16:36;96280.34;;;19.01;58.96
48774;BME280;34576;0.000;0.000;2023-08-06T12:23:36;96281.41;;;19.00;58.69
48774;BME280;34576;0.000;0.000;2023-08-06T12:30:36;96291.66;;;18.92;58.61
48774;BME280;34576;0.000;0.000;2023-08-06T12:37:37;96304.94;;;18.97;58.33
48774;BME280;34576;0.000;0.000;2023-08-06T12:44:38;96307.22;;;19.04;58.73
48774;BME280;34576;0.000;0.000;2023-08-06T12:51:39;96290.13;;;19.05;58.33
48774;BME280;34576;0.000;0.000;2023-08-06T12:58:39;96313.63;;;19.03;58.07
48774;BME280;34576;0.000;0.000;2023-08-06T13:05:40;96352.72;;;18.70;59.02
48774;BME280;34576;0.000;0.000;2023-08-06T13:12:40;96358.13;;;18.84;58.66
48774;BME280;34576;0.000;0.000;2023-08-06T13:19:40;96361.47;;;18.94;59.12
48774;BME280;34576;0.000;0.000;2023-08-06T13:26:40;96368.16;;;19.11;58.72
48774;BME280;34576;0.000;0.000;2023-08-06T13:33:41;96368.31;;;19.20;58.72
48774;BME280;34576;0.000;0.000;2023-08-06T13:40:41;96361.97;;;19.16;58.14
48774;BME280;34576;0.000;0.000;2023-08-06T13:47:42;96375.31;;;19.16;57.67
48774;BME280;34576;0.000;0.000;2023-08-06T13:54:42;96368.16;;;19.11;57.59
48774;BME280;34576;0.000;0.000;2023-08-06T14:01:43;96366.59;;;19.10;57.37
48774;BME280;34576;0.000;0.000;2023-08-06T14:08:43;96378.31;;;19.09;57.28
48774;BME280;34576;0.000;0.000;2023-08-06T14:15:43;96395.19;;;19.04;57.19
48774;BME280;34576;0.000;0.000;2023-08-06T14:22:46;96398.94;;;19.03;56.40
48774;BME280;34576;0.000;0.000;2023-08-06T14:29:47;96383.13;;;19.07;56.85
48774;BME280;34576;0.000;0.000;2023-08-06T14:36:47;96421.47;;;19.11;56.25
48774;BME280;34576;0.000;0.000;2023-08-06T14:43:48;96461.13;;;18.99;57.71
48774;BME280;34576;0.000;0.000;2023-08-06T14:50:48;96456.84;;;18.97;57.92
48774;BME280;34576;0.000;0.000;2023-08-06T14:57:48;96461.31;;;19.02;57.38
48774;BME280;34576;0.000;0.000;2023-08-06T15:04:48;96479.78;;;18.99;57.40
48774;BME280;34576;0.000;0.000;2023-08-06T15:11:50;96464.22;;;19.06;56.86
48774;BME280;34576;0.000;0.000;2023-08-06T15:18:50;96466.06;;;19.05;56.91
48774;BME280;34576;0.000;0.000;2023-08-06T15:25:50;96467.22;;;18.99;56.75
48774;BME280;34576;0.000;0.000;2023-08-06T15:32:51;96481.34;;;19.00;56.78
48774;BME280;34576;0.000;0.000;2023-08-06T15:39:51;96492.00;;;19.00;56.03
48774;BME280;34576;0.000;0.000;2023-08-06T15:46:52;96515.84;;;18.91;56.34
48774;BME280;34576;0.000;0.000;2023-08-06T15:53:52;96525.13;;;18.93;55.58
48774;BME280;34576;0.000;0.000;2023-08-06T16:00:52;96538.91;;;19.01;55.35
48774;BME280;34576;0.000;0.000;2023-08-06T16:07:53;96531.50;;;18.97;55.60
48774;BME280;34576;0.000;0.000;2023-08-06T16:14:53;96536.81;;;18.97;55.07
48774;BME280;34576;0.000;0.000;2023-08-06T16:21:54;96536.78;;;19.03;54.92
48774;BME280;34576;0.000;0.000;2023-08-06T16:28:54;96544.38;;;18.90;55.86
48774;BME280;34576;0.000;0.000;2023-08-06T16:35:54;96544.13;;;18.87;55.19
48774;BME280;34576;0.000;0.000;2023-08-06T16:42:55;96542.53;;;18.86;54.68
48774;BME280;34576;0.000;0.000;2023-08-06T16:49:55;96542.53;;;18.86;54.11
48774;BME280;34576;0.000;0.000;2023-08-06T16:56:55;96555.03;;;18.90;53.99
48774;BME280;34576;0.000;0.000;2023-08-06T17:03:59;96590.28;;;18.53;55.71
48774;BME280;34576;0.000;0.000;2023-08-06T17:10:59;96616.56;;;18.65;56.21
48774;BME280;34576;0.000;0.000;2023-08-06T17:18:00;96606.47;;;18.61;57.03
48774;BME280;34576;0.000;0.000;2023-08-06T17:25:00;96613.34;;;18.97;55.94
48774;BME280;34576;0.000;0.000;2023-08-06T17:32:00;96607.19;;;18.96;56.55
48774;BME280;34576;0.000;0.000;2023-08-06T17:39:01;96610.91;;;18.71;57.20
48774;BME280;34576;0.000;0.000;2023-08-06T17:46:01;96629.66;;;18.90;57.14
48774;BME280;34576;0.000;0.000;2023-08-06T17:53:02;96609.53;;;18.74;56.33
48774;BME280;34576;0.000;0.000;2023-08-06T18:00:03;96599.94;;;20.41;57.72
48774;BME280;34576;0.000;0.000;2023-08-06T18:07:11;96620.19;;;19.27;56.19
48774;BME280;34576;0.000;0.000;2023-08-06T18:14:11;96629.22;;;19.07;57.83
48774;BME280;34576;0.000;0.000;2023-08-06T18:21:12;96617.19;;;19.10;57.71
48774;BME280;34576;0.000;0.000;2023-08-06T18:28:12;96622.81;;;19.08;57.94
48774;BME280;34576;0.000;0.000;2023-08-06T18:35:12;96626.84;;;19.06;58.05
48774;BME280;34576;0.000;0.000;2023-08-06T18:42:13;96632.16;;;19.06;57.42
48774;BME280;34576;0.000;0.000;2023-08-06T18:49:13;96642.84;;;19.06;57.24
48774;BME280;34576;0.000;0.000;2023-08-06T18:56:14;96642.88;;;19.01;57.66
48774;BME280;34576;0.000;0.000;2023-08-06T19:03:15;96645.09;;;18.93;57.80
48774;BME280;34576;0.000;0.000;2023-08-06T19:10:15;96652.00;;;18.94;57.88
48774;BME280;34576;0.000;0.000;2023-08-06T19:17:16;96651.47;;;18.92;57.05
48774;BME280;34576;0.000;0.000;2023-08-06T19:24:17;96658.19;;;18.90;57.19
48774;BME280;34576;0.000;0.000;2023-08-06T19:31:17;96659.47;;;18.92;56.90
48774;BME280;34576;0.000;0.000;2023-08-06T19:38:18;96650.66;;;18.97;56.31
48774;BME280;34576;0.000;0.000;2023-08-06T19:45:19;96656.00;;;18.97;56.24
48774;BME280;34576;0.000;0.000;2023-08-06T19:52:19;96660.41;;;19.07;55.74
48774;BME280;34576;0.000;0.000;2023-08-06T19:59:19;96662.25;;;19.11;55.76
48774;BME280;34576;0.000;0.000;2023-08-06T20:06:20;96671.03;;;19.12;55.82
48774;BME280;34576;0.000;0.000;2023-08-06T20:13:26;96671.25;;;19.16;55.56
48774;BME280;34576;0.000;0.000;2023-08-06T20:20:26;96675.28;;;19.13;55.62
48774;BME280;34576;0.000;0.000;2023-08-06T20:27:26;96695.03;;;19.12;55.48
48774;BME280;34576;0.000;0.000;2023-08-06T20:34:27;96707.75;;;19.20;56.02
48774;BME280;34576;0.000;0.000;2023-08-06T20:41:27;96701.41;;;19.11;55.60
48774;BME280;34576;0.000;0.000;2023-08-06T20:48:28;96701.38;;;19.16;56.20
48774;BME280;34576;0.000;0.000;2023-08-06T20:55:28;96695.25;;;19.16;56.57
48774;BME280;34576;0.000;0.000;2023-08-06T21:02:28;96695.13;;;19.02;57.13
48774;BME280;34576;0.000;0.000;2023-08-06T21:09:28;96711.72;;;18.93;56.62
48774;BME280;34576;0.000;0.000;2023-08-06T21:16:29;96713.31;;;18.94;56.38
48774;BME280;34576;0.000;0.000;2023-08-06T21:23:29;96726.44;;;18.86;56.05
48774;BME280;34576;0.000;0.000;2023-08-06T21:30:32;96732.81;;;18.85;55.55
48774;BME280;34576;0.000;0.000;2023-08-06T21:37:32;96734.41;;;18.86;55.63
48774;BME280;34576;0.000;0.000;2023-08-06T21:44:33;96759.78;;;18.78;55.26
48774;BME280;34576;0.000;0.000;2023-08-06T21:51:33;96772.59;;;18.76;55.05
48774;BME280;34576;0.000;0.000;2023-08-06T22:05:40;96779.38;;;18.58;54.16
48774;BME280;34576;0.000;0.000;2023-08-06T22:12:41;96783.22;;;18.81;54.02
48774;BME280;34576;0.000;0.000;2023-08-06T22:19:41;96784.91;;;18.67;54.17
48774;BME280;34576;0.000;0.000;2023-08-06T22:26:42;96778.22;;;18.69;54.16
48774;BME280;34576;0.000;0.000;2023-08-06T22:33:42;96778.00;;;18.66;53.86
48774;BME280;34576;0.000;0.000;2023-08-06T22:40:42;96776.53;;;18.89;53.75
48774;BME280;34576;0.000;0.000;2023-08-06T22:47:43;96780.69;;;18.60;53.84
48774;BME280;34576;0.000;0.000;2023-08-06T22:54:43;96768.91;;;18.67;53.77
48774;BME280;34576;0.000;0.000;2023-08-06T23:01:44;96767.84;;;18.73;53.58
48774;BME280;34576;0.000;0.000;2023-08-06T23:08:45;96767.16;;;18.52;53.64
48774;BME280;34576;0.000;0.000;2023-08-06T23:15:45;96772.97;;;18.64;53.58
48774;BME280;34576;0.000;0.000;2023-08-06T23:22:46;96775.78;;;18.78;53.38
48774;BME280;34576;0.000;0.000;2023-08-06T23:29:46;96776.06;;;18.76;53.50
48774;BME280;34576;0.000;0.000;2023-08-06T23:36:46;96769.47;;;18.63;53.28
48774;BME280;34576;0.000;0.000;2023-08-06T23:43:48;96773.16;;;18.73;53.14
48774;BME280;34576;0.000;0.000;2023-08-06T23:50:51;96774.81;;;18.63;52.88
48774;BME280;34576;0.000;0.000;2023-08-06T23:57:52;96780.22;;;18.53;52.76
